sensor_id;sensor_type;location;lat;lon;timestamp;P1;durP1;ratioP1;P2;durP2;ratioP2
5569;SDS011;2808;51.240;6.794;2023-02-01T00:00:09;22.50;;;7.00;;
5569;SDS011;2808;51.240;6.794;2023-02-01T00:02:38;23.37;;;6.97;;
5569;SDS011;2808;51.240;6.794;2023-02-01T00:05:06;19.90;;;6.90;;
5569;SDS011;2808;51.240;6.794;2023-02-01T00:07:34;21.47;;;6.73;;
5569;SDS011;2808;51.240;6.794;2023-02-01T00:10:02;22.87;;;7.57;;
5569;SDS011;2808;51.240;6.794;2023-02-01T00:12:31;30.87;;;8.23;;
5569;SDS011;2808;51.240;6.794;2023-02-01T00:14:58;35.77;;;8.00;;
5569;SDS011;2808;51.240;6.794;2023-02-01T00:17:27;20.50;;;8.13;;
5569;SDS011;2808;51.240;6.794;2023-02-01T00:19:54;28.83;;;9.60;;
5569;SDS011;2808;51.240;6.794;2023-02-01T00:22:22;24.20;;;8.43;;
5569;SDS011;2808;51.240;6.794;2023-02-01T00:24:49;30.50;;;9.53;;
5569;SDS011;2808;51.240;6.794;2023-02-01T00:27:17;25.63;;;8.37;;
5569;SDS011;2808;51.240;6.794;2023-02-01T00:29:46;33.57;;;9.57;;
5569;SDS011;2808;51.240;6.794;2023-02-01T00:32:13;21.50;;;9.00;;
5569;SDS011;2808;51.240;6.794;2023-02-01T00:34:42;29.40;;;9.33;;
5569;SDS011;2808;51.240;6.794;2023-02-01T00:37:10;22.77;;;9.33;;
5569;SDS011;2808;51.240;6.794;2023-02-01T00:39:40;24.67;;;9.30;;
5569;SDS011;2808;51.240;6.794;2023-02-01T00:42:07;22.87;;;8.63;;
5569;SDS011;2808;51.240;6.794;2023-02-01T00:44:35;33.63;;;9.70;;
5569;SDS011;2808;51.240;6.794;2023-02-01T00:47:02;33.70;;;10.33;;
5569;SDS011;2808;51.240;6.794;2023-02-01T00:49:29;29.70;;;10.67;;
5569;SDS011;2808;51.240;6.794;2023-02-01T00:51:58;26.90;;;10.30;;
5569;SDS011;2808;51.240;6.794;2023-02-01T00:54:26;25.93;;;10.27;;
5569;SDS011;2808;51.240;6.794;2023-02-01T00:56:53;26.67;;;9.17;;
5569;SDS011;2808;51.240;6.794;2023-02-01T00:59:21;27.90;;;8.10;;
5569;SDS011;2808;51.240;6.794;2023-02-01T01:01:48;20.10;;;7.97;;
5569;SDS011;2808;51.240;6.794;2023-02-01T01:04:16;20.27;;;7.97;;
5569;SDS011;2808;51.240;6.794;2023-02-01T01:06:43;21.80;;;7.60;;
5569;SDS011;2808;51.240;6.794;2023-02-01T01:09:12;27.10;;;7.53;;
5569;SDS011;2808;51.240;6.794;2023-02-01T01:11:39;27.93;;;7.50;;
5569;SDS011;2808;51.240;6.794;2023-02-01T01:14:07;19.63;;;6.50;;
5569;SDS011;2808;51.240;6.794;2023-02-01T01:16:35;28.93;;;7.20;;
5569;SDS011;2808;51.240;6.794;2023-02-01T01:19:02;38.07;;;7.23;;
5569;SDS011;2808;51.240;6.794;2023-02-01T01:21:30;22.10;;;6.87;;
5569;SDS011;2808;51.240;6.794;2023-02-01T01:23:58;29.10;;;6.83;;
5569;SDS011;2808;51.240;6.794;2023-02-01T01:26:28;25.77;;;6.27;;
5569;SDS011;2808;51.240;6.794;2023-02-01T01:28:56;19.30;;;6.20;;
5569;SDS011;2808;51.240;6.794;2023-02-01T01:31:24;22.70;;;5.90;;
5569;SDS011;2808;51.240;6.794;2023-02-01T01:33:53;13.37;;;4.70;;
5569;SDS011;2808;51.240;6.794;2023-02-01T01:36:21;17.23;;;5.53;;
5569;SDS011;2808;51.240;6.794;2023-02-01T01:38:49;38.63;;;5.50;;
5569;SDS011;2808;51.240;6.794;2023-02-01T01:41:17;27.17;;;5.00;;
5569;SDS011;2808;51.240;6.794;2023-02-01T01:43:52;20.60;;;6.50;;
5569;SDS011;2808;51.240;6.794;2023-02-01T01:46:21;17.07;;;4.10;;
5569;SDS011;2808;51.240;6.794;2023-02-01T01:48:51;18.70;;;4.30;;
5569;SDS011;2808;51.240;6.794;2023-02-01T01:51:25;21.17;;;4.40;;
5569;SDS011;2808;51.240;6.794;2023-02-01T01:53:56;15.83;;;4.07;;
5569;SDS011;2808;51.240;6.794;2023-02-01T01:56:30;20.20;;;4.30;;
5569;SDS011;2808;51.240;6.794;2023-02-01T01:59:01;24.83;;;4.53;;
5569;SDS011;2808;51.240;6.794;2023-02-01T02:01:30;19.63;;;4.50;;
5569;SDS011;2808;51.240;6.794;2023-02-01T02:03:58;24.30;;;4.10;;
5569;SDS011;2808;51.240;6.794;2023-02-01T02:06:32;24.73;;;3.70;;
5569;SDS011;2808;51.240;6.794;2023-02-01T02:09:06;20.83;;;5.90;;
5569;SDS011;2808;51.240;6.794;2023-02-01T02:11:34;18.93;;;3.90;;
5569;SDS011;2808;51.240;6.794;2023-02-01T02:14:03;21.37;;;3.97;;
5569;SDS011;2808;51.240;6.794;2023-02-01T02:16:45;17.63;;;3.60;;
5569;SDS011;2808;51.240;6.794;2023-02-01T02:25:55;14.43;;;3.43;;
5569;SDS011;2808;51.240;6.794;2023-02-01T02:28:54;20.23;;;3.43;;
5569;SDS011;2808;51.240;6.794;2023-02-01T02:31:55;21.17;;;3.97;;
5569;SDS011;2808;51.240;6.794;2023-02-01T02:34:46;26.53;;;4.10;;
5569;SDS011;2808;51.240;6.794;2023-02-01T02:37:20;20.50;;;4.30;;
5569;SDS011;2808;51.240;6.794;2023-02-01T02:39:57;20.23;;;3.77;;
5569;SDS011;2808;51.240;6.794;2023-02-01T02:42:35;21.17;;;3.47;;
5569;SDS011;2808;51.240;6.794;2023-02-01T02:45:29;20.50;;;3.60;;
5569;SDS011;2808;51.240;6.794;2023-02-01T02:48:22;25.93;;;4.60;;
5569;SDS011;2808;51.240;6.794;2023-02-01T02:50:56;17.87;;;3.27;;
5569;SDS011;2808;51.240;6.794;2023-02-01T02:53:46;19.00;;;3.80;;
5569;SDS011;2808;51.240;6.794;2023-02-01T02:56:40;27.23;;;3.90;;
5569;SDS011;2808;51.240;6.794;2023-02-01T02:59:26;23.63;;;4.07;;
5569;SDS011;2808;51.240;6.794;2023-02-01T03:02:14;27.03;;;3.97;;
5569;SDS011;2808;51.240;6.794;2023-02-01T03:04:59;23.27;;;3.83;;
5569;SDS011;2808;51.240;6.794;2023-02-01T03:07:53;19.83;;;3.30;;
5569;SDS011;2808;51.240;6.794;2023-02-01T03:10:29;21.83;;;3.40;;
5569;SDS011;2808;51.240;6.794;2023-02-01T03:13:04;22.17;;;4.33;;
5569;SDS011;2808;51.240;6.794;2023-02-01T03:15:36;21.07;;;3.70;;
5569;SDS011;2808;51.240;6.794;2023-02-01T03:18:06;16.40;;;3.70;;
5569;SDS011;2808;51.240;6.794;2023-02-01T03:20:38;25.30;;;3.87;;
5569;SDS011;2808;51.240;6.794;2023-02-01T03:23:12;22.40;;;3.33;;
5569;SDS011;2808;51.240;6.794;2023-02-01T03:25:42;23.33;;;4.03;;
5569;SDS011;2808;51.240;6.794;2023-02-01T03:28:10;27.17;;;3.80;;
5569;SDS011;2808;51.240;6.794;2023-02-01T03:30:39;31.47;;;4.60;;
5569;SDS011;2808;51.240;6.794;2023-02-01T03:33:09;19.13;;;4.17;;
5569;SDS011;2808;51.240;6.794;2023-02-01T03:35:48;17.20;;;3.97;;
5569;SDS011;2808;51.240;6.794;2023-02-01T03:38:24;21.37;;;3.73;;
5569;SDS011;2808;51.240;6.794;2023-02-01T03:40:57;34.33;;;3.90;;
5569;SDS011;2808;51.240;6.794;2023-02-01T03:43:29;24.83;;;3.53;;
5569;SDS011;2808;51.240;6.794;2023-02-01T03:46:03;20.87;;;3.63;;
5569;SDS011;2808;51.240;6.794;2023-02-01T03:48:35;19.57;;;3.70;;
5569;SDS011;2808;51.240;6.794;2023-02-01T03:51:04;20.90;;;3.87;;
5569;SDS011;2808;51.240;6.794;2023-02-01T03:53:34;26.37;;;4.90;;
5569;SDS011;2808;51.240;6.794;2023-02-01T03:56:03;28.30;;;4.10;;
5569;SDS011;2808;51.240;6.794;2023-02-01T03:58:32;21.23;;;3.57;;
5569;SDS011;2808;51.240;6.794;2023-02-01T04:00:59;34.00;;;4.17;;
5569;SDS011;2808;51.240;6.794;2023-02-01T04:03:27;17.33;;;3.67;;
5569;SDS011;2808;51.240;6.794;2023-02-01T04:05:55;23.40;;;3.97;;
5569;SDS011;2808;51.240;6.794;2023-02-01T04:08:22;15.77;;;3.80;;
5569;SDS011;2808;51.240;6.794;2023-02-01T04:10:51;18.03;;;3.60;;
5569;SDS011;2808;51.240;6.794;2023-02-01T04:13:19;19.23;;;3.57;;
5569;SDS011;2808;51.240;6.794;2023-02-01T04:15:46;24.70;;;3.70;;
5569;SDS011;2808;51.240;6.794;2023-02-01T04:18:15;30.97;;;4.60;;
5569;SDS011;2808;51.240;6.794;2023-02-01T04:20:43;19.63;;;3.60;;
5569;SDS011;2808;51.240;6.794;2023-02-01T04:23:10;17.00;;;3.40;;
5569;SDS011;2808;51.240;6.794;2023-02-01T04:25:40;35.20;;;4.10;;
5569;SDS011;2808;51.240;6.794;2023-02-01T04:28:09;23.37;;;3.90;;
5569;SDS011;2808;51.240;6.794;2023-02-01T04:30:36;23.17;;;3.07;;
5569;SDS011;2808;51.240;6.794;2023-02-01T04:33:04;33.13;;;4.00;;
5569;SDS011;2808;51.240;6.794;2023-02-01T04:35:31;22.27;;;4.10;;
5569;SDS011;2808;51.240;6.794;2023-02-01T04:37:59;22.03;;;4.10;;
5569;SDS011;2808;51.240;6.794;2023-02-01T04:40:29;28.50;;;4.57;;
5569;SDS011;2808;51.240;6.794;2023-02-01T04:42:56;25.50;;;3.47;;
5569;SDS011;2808;51.240;6.794;2023-02-01T04:45:25;27.97;;;3.60;;
5569;SDS011;2808;51.240;6.794;2023-02-01T04:47:52;25.90;;;4.13;;
5569;SDS011;2808;51.240;6.794;2023-02-01T04:50:20;27.30;;;5.40;;
5569;SDS011;2808;51.240;6.794;2023-02-01T04:52:48;21.47;;;3.90;;
5569;SDS011;2808;51.240;6.794;2023-02-01T04:55:16;30.90;;;4.40;;
5569;SDS011;2808;51.240;6.794;2023-02-01T04:57:43;28.00;;;3.97;;
5569;SDS011;2808;51.240;6.794;2023-02-01T05:00:11;22.93;;;3.00;;
5569;SDS011;2808;51.240;6.794;2023-02-01T05:02:40;22.67;;;4.50;;
5569;SDS011;2808;51.240;6.794;2023-02-01T05:05:08;22.33;;;3.43;;
5569;SDS011;2808;51.240;6.794;2023-02-01T05:07:35;20.57;;;3.70;;
5569;SDS011;2808;51.240;6.794;2023-02-01T05:10:03;25.40;;;3.40;;
5569;SDS011;2808;51.240;6.794;2023-02-01T05:12:30;30.23;;;4.27;;
5569;SDS011;2808;51.240;6.794;2023-02-01T05:15:15;14.67;;;2.93;;
5569;SDS011;2808;51.240;6.794;2023-02-01T05:17:44;23.57;;;4.80;;
5569;SDS011;2808;51.240;6.794;2023-02-01T05:20:11;34.20;;;5.80;;
5569;SDS011;2808;51.240;6.794;2023-02-01T05:22:40;23.67;;;4.57;;
5569;SDS011;2808;51.240;6.794;2023-02-01T05:25:08;17.00;;;3.67;;
5569;SDS011;2808;51.240;6.794;2023-02-01T05:27:35;26.30;;;3.80;;
5569;SDS011;2808;51.240;6.794;2023-02-01T05:30:03;17.03;;;3.10;;
5569;SDS011;2808;51.240;6.794;2023-02-01T05:32:31;19.33;;;3.50;;
5569;SDS011;2808;51.240;6.794;2023-02-01T05:35:00;18.20;;;3.90;;
5569;SDS011;2808;51.240;6.794;2023-02-01T05:37:28;22.43;;;4.67;;
5569;SDS011;2808;51.240;6.794;2023-02-01T05:39:55;27.00;;;3.90;;
5569;SDS011;2808;51.240;6.794;2023-02-01T05:42:23;24.53;;;3.90;;
5569;SDS011;2808;51.240;6.794;2023-02-01T05:44:50;23.83;;;4.27;;
5569;SDS011;2808;51.240;6.794;2023-02-01T05:47:18;17.33;;;4.13;;
5569;SDS011;2808;51.240;6.794;2023-02-01T05:49:45;26.93;;;4.40;;
5569;SDS011;2808;51.240;6.794;2023-02-01T05:52:14;27.93;;;4.53;;
5569;SDS011;2808;51.240;6.794;2023-02-01T05:54:44;21.23;;;3.90;;
5569;SDS011;2808;51.240;6.794;2023-02-01T05:57:12;32.23;;;4.50;;
5569;SDS011;2808;51.240;6.794;2023-02-01T05:59:40;23.53;;;3.70;;
5569;SDS011;2808;51.240;6.794;2023-02-01T06:02:09;26.53;;;4.00;;
5569;SDS011;2808;51.240;6.794;2023-02-01T06:04:40;26.40;;;5.50;;
5569;SDS011;2808;51.240;6.794;2023-02-01T06:07:08;30.43;;;4.77;;
5569;SDS011;2808;51.240;6.794;2023-02-01T06:09:37;25.80;;;3.50;;
5569;SDS011;2808;51.240;6.794;2023-02-01T06:12:05;35.30;;;4.07;;
5569;SDS011;2808;51.240;6.794;2023-02-01T06:14:33;28.67;;;4.90;;
5569;SDS011;2808;51.240;6.794;2023-02-01T06:17:02;32.10;;;5.07;;
5569;SDS011;2808;51.240;6.794;2023-02-01T06:19:30;22.93;;;3.93;;
5569;SDS011;2808;51.240;6.794;2023-02-01T06:21:58;28.57;;;3.83;;
5569;SDS011;2808;51.240;6.794;2023-02-01T06:24:25;30.50;;;4.57;;
5569;SDS011;2808;51.240;6.794;2023-02-01T06:26:54;25.77;;;3.97;;
5569;SDS011;2808;51.240;6.794;2023-02-01T06:29:21;22.00;;;3.47;;
5569;SDS011;2808;51.240;6.794;2023-02-01T06:31:49;33.10;;;4.83;;
5569;SDS011;2808;51.240;6.794;2023-02-01T06:34:18;21.90;;;4.13;;
5569;SDS011;2808;51.240;6.794;2023-02-01T06:36:47;24.87;;;3.70;;
5569;SDS011;2808;51.240;6.794;2023-02-01T06:39:15;19.00;;;3.87;;
5569;SDS011;2808;51.240;6.794;2023-02-01T06:41:42;24.07;;;3.73;;
5569;SDS011;2808;51.240;6.794;2023-02-01T06:44:13;18.53;;;4.00;;
5569;SDS011;2808;51.240;6.794;2023-02-01T06:46:40;21.27;;;3.97;;
5569;SDS011;2808;51.240;6.794;2023-02-01T06:49:08;27.07;;;3.90;;
5569;SDS011;2808;51.240;6.794;2023-02-01T06:51:35;22.83;;;4.83;;
5569;SDS011;2808;51.240;6.794;2023-02-01T06:54:03;17.83;;;3.57;;
5569;SDS011;2808;51.240;6.794;2023-02-01T06:56:30;27.27;;;3.47;;
5569;SDS011;2808;51.240;6.794;2023-02-01T06:58:58;23.83;;;3.43;;
5569;SDS011;2808;51.240;6.794;2023-02-01T07:01:27;24.53;;;3.30;;
5569;SDS011;2808;51.240;6.794;2023-02-01T07:03:57;18.87;;;3.50;;
5569;SDS011;2808;51.240;6.794;2023-02-01T07:06:24;23.53;;;4.03;;
5569;SDS011;2808;51.240;6.794;2023-02-01T07:08:52;25.20;;;4.10;;
5569;SDS011;2808;51.240;6.794;2023-02-01T07:11:20;36.83;;;4.83;;
5569;SDS011;2808;51.240;6.794;2023-02-01T07:13:49;18.00;;;3.57;;
5569;SDS011;2808;51.240;6.794;2023-02-01T07:16:17;24.23;;;3.90;;
5569;SDS011;2808;51.240;6.794;2023-02-01T07:18:47;23.60;;;4.03;;
5569;SDS011;2808;51.240;6.794;2023-02-01T07:21:15;35.17;;;4.33;;
5569;SDS011;2808;51.240;6.794;2023-02-01T07:23:43;20.87;;;3.90;;
5569;SDS011;2808;51.240;6.794;2023-02-01T07:26:12;21.17;;;4.03;;
5569;SDS011;2808;51.240;6.794;2023-02-01T07:28:41;21.90;;;3.80;;
5569;SDS011;2808;51.240;6.794;2023-02-01T07:31:10;23.80;;;3.60;;
5569;SDS011;2808;51.240;6.794;2023-02-01T07:33:40;22.40;;;3.73;;
5569;SDS011;2808;51.240;6.794;2023-02-01T07:36:11;25.10;;;4.50;;
5569;SDS011;2808;51.240;6.794;2023-02-01T07:38:39;20.00;;;4.27;;
5569;SDS011;2808;51.240;6.794;2023-02-01T07:41:07;25.20;;;4.57;;
5569;SDS011;2808;51.240;6.794;2023-02-01T07:43:35;34.83;;;4.20;;
5569;SDS011;2808;51.240;6.794;2023-02-01T07:46:03;23.10;;;3.90;;
5569;SDS011;2808;51.240;6.794;2023-02-01T07:48:37;31.10;;;4.00;;
5569;SDS011;2808;51.240;6.794;2023-02-01T07:51:05;22.40;;;4.00;;
5569;SDS011;2808;51.240;6.794;2023-02-01T07:53:36;26.97;;;4.27;;
5569;SDS011;2808;51.240;6.794;2023-02-01T07:56:08;34.53;;;5.07;;
5569;SDS011;2808;51.240;6.794;2023-02-01T07:58:37;24.80;;;3.90;;
5569;SDS011;2808;51.240;6.794;2023-02-01T08:01:05;26.47;;;3.80;;
5569;SDS011;2808;51.240;6.794;2023-02-01T08:03:48;21.80;;;3.63;;
5569;SDS011;2808;51.240;6.794;2023-02-01T08:06:17;42.10;;;4.80;;
5569;SDS011;2808;51.240;6.794;2023-02-01T08:08:47;16.90;;;3.87;;
5569;SDS011;2808;51.240;6.794;2023-02-01T08:11:16;25.60;;;4.13;;
5569;SDS011;2808;51.240;6.794;2023-02-01T08:13:45;30.07;;;4.27;;
5569;SDS011;2808;51.240;6.794;2023-02-01T08:16:15;25.20;;;4.43;;
5569;SDS011;2808;51.240;6.794;2023-02-01T08:18:43;27.43;;;4.53;;
5569;SDS011;2808;51.240;6.794;2023-02-01T08:21:12;28.13;;;4.17;;
5569;SDS011;2808;51.240;6.794;2023-02-01T08:23:41;20.20;;;4.20;;
5569;SDS011;2808;51.240;6.794;2023-02-01T08:26:22;18.20;;;3.33;;
5569;SDS011;2808;51.240;6.794;2023-02-01T08:28:54;24.47;;;3.70;;
5569;SDS011;2808;51.240;6.794;2023-02-01T08:31:27;27.50;;;4.97;;
5569;SDS011;2808;51.240;6.794;2023-02-01T08:33:57;22.13;;;3.80;;
5569;SDS011;2808;51.240;6.794;2023-02-01T08:36:26;23.33;;;3.90;;
5569;SDS011;2808;51.240;6.794;2023-02-01T08:38:56;21.43;;;3.70;;
5569;SDS011;2808;51.240;6.794;2023-02-01T08:41:24;22.50;;;3.73;;
5569;SDS011;2808;51.240;6.794;2023-02-01T08:43:55;24.37;;;4.60;;
5569;SDS011;2808;51.240;6.794;2023-02-01T08:46:23;26.87;;;4.53;;
5569;SDS011;2808;51.240;6.794;2023-02-01T08:48:51;26.77;;;4.23;;
5569;SDS011;2808;51.240;6.794;2023-02-01T08:51:19;27.93;;;4.47;;
5569;SDS011;2808;51.240;6.794;2023-02-01T08:53:47;24.83;;;4.00;;
5569;SDS011;2808;51.240;6.794;2023-02-01T08:56:17;19.33;;;3.73;;
5569;SDS011;2808;51.240;6.794;2023-02-01T08:58:45;32.90;;;4.37;;
5569;SDS011;2808;51.240;6.794;2023-02-01T09:01:13;16.63;;;3.77;;
5569;SDS011;2808;51.240;6.794;2023-02-01T09:03:42;33.60;;;4.37;;
5569;SDS011;2808;51.240;6.794;2023-02-01T09:06:10;17.10;;;3.60;;
5569;SDS011;2808;51.240;6.794;2023-02-01T09:08:40;30.20;;;4.40;;
5569;SDS011;2808;51.240;6.794;2023-02-01T09:11:10;44.00;;;4.70;;
5569;SDS011;2808;51.240;6.794;2023-02-01T09:13:40;17.97;;;3.50;;
5569;SDS011;2808;51.240;6.794;2023-02-01T09:16:08;28.13;;;3.97;;
5569;SDS011;2808;51.240;6.794;2023-02-01T09:18:35;29.60;;;4.30;;
5569;SDS011;2808;51.240;6.794;2023-02-01T09:21:03;23.03;;;4.73;;
5569;SDS011;2808;51.240;6.794;2023-02-01T09:23:34;26.70;;;3.90;;
5569;SDS011;2808;51.240;6.794;2023-02-01T09:26:02;19.57;;;3.57;;
5569;SDS011;2808;51.240;6.794;2023-02-01T09:28:31;27.43;;;4.57;;
5569;SDS011;2808;51.240;6.794;2023-02-01T09:31:00;21.27;;;4.80;;
5569;SDS011;2808;51.240;6.794;2023-02-01T09:33:29;34.77;;;4.43;;
5569;SDS011;2808;51.240;6.794;2023-02-01T09:35:56;28.67;;;4.10;;
5569;SDS011;2808;51.240;6.794;2023-02-01T09:38:25;18.47;;;3.30;;
5569;SDS011;2808;51.240;6.794;2023-02-01T09:40:53;26.13;;;4.20;;
5569;SDS011;2808;51.240;6.794;2023-02-01T09:43:25;24.43;;;5.00;;
5569;SDS011;2808;51.240;6.794;2023-02-01T09:46:03;18.10;;;4.20;;
5569;SDS011;2808;51.240;6.794;2023-02-01T09:48:42;26.43;;;4.30;;
5569;SDS011;2808;51.240;6.794;2023-02-01T09:51:13;22.70;;;4.03;;
5569;SDS011;2808;51.240;6.794;2023-02-01T09:53:43;25.63;;;3.83;;
5569;SDS011;2808;51.240;6.794;2023-02-01T09:56:18;26.80;;;5.20;;
5569;SDS011;2808;51.240;6.794;2023-02-01T09:58:52;20.33;;;3.60;;
5569;SDS011;2808;51.240;6.794;2023-02-01T10:01:29;19.97;;;3.37;;
5569;SDS011;2808;51.240;6.794;2023-02-01T10:03:59;18.17;;;4.33;;
5569;SDS011;2808;51.240;6.794;2023-02-01T10:06:33;26.20;;;4.47;;
5569;SDS011;2808;51.240;6.794;2023-02-01T10:09:14;23.23;;;5.07;;
5569;SDS011;2808;51.240;6.794;2023-02-01T10:12:00;33.77;;;4.20;;
5569;SDS011;2808;51.240;6.794;2023-02-01T10:14:51;22.33;;;4.80;;
5569;SDS011;2808;51.240;6.794;2023-02-01T10:17:31;24.03;;;3.80;;
5569;SDS011;2808;51.240;6.794;2023-02-01T10:20:12;18.50;;;3.30;;
5569;SDS011;2808;51.240;6.794;2023-02-01T10:22:54;23.67;;;4.23;;
5569;SDS011;2808;51.240;6.794;2023-02-01T10:25:32;28.73;;;4.43;;
5569;SDS011;2808;51.240;6.794;2023-02-01T10:28:07;28.30;;;4.70;;
5569;SDS011;2808;51.240;6.794;2023-02-01T10:30:41;20.00;;;3.27;;
5569;SDS011;2808;51.240;6.794;2023-02-01T10:33:16;43.10;;;5.00;;
5569;SDS011;2808;51.240;6.794;2023-02-01T10:35:46;19.83;;;3.27;;
5569;SDS011;2808;51.240;6.794;2023-02-01T10:38:19;32.67;;;4.33;;
5569;SDS011;2808;51.240;6.794;2023-02-01T10:40:51;23.43;;;4.67;;
5569;SDS011;2808;51.240;6.794;2023-02-01T10:43:21;17.23;;;4.10;;
5569;SDS011;2808;51.240;6.794;2023-02-01T10:45:48;27.23;;;4.47;;
5569;SDS011;2808;51.240;6.794;2023-02-01T10:48:31;19.33;;;3.80;;
5569;SDS011;2808;51.240;6.794;2023-02-01T10:51:16;22.37;;;4.70;;
5569;SDS011;2808;51.240;6.794;2023-02-01T10:54:09;24.40;;;4.03;;
5569;SDS011;2808;51.240;6.794;2023-02-01T10:56:43;20.03;;;4.10;;
5569;SDS011;2808;51.240;6.794;2023-02-01T10:59:14;22.53;;;4.87;;
5569;SDS011;2808;51.240;6.794;2023-02-01T11:01:50;16.27;;;4.07;;
5569;SDS011;2808;51.240;6.794;2023-02-01T11:04:30;20.90;;;3.73;;
5569;SDS011;2808;51.240;6.794;2023-02-01T11:07:05;19.27;;;4.00;;
5569;SDS011;2808;51.240;6.794;2023-02-01T11:09:39;29.60;;;4.73;;
5569;SDS011;2808;51.240;6.794;2023-02-01T11:12:24;18.03;;;3.30;;
5569;SDS011;2808;51.240;6.794;2023-02-01T11:15:00;23.50;;;3.77;;
5569;SDS011;2808;51.240;6.794;2023-02-01T11:17:42;20.30;;;3.90;;
5569;SDS011;2808;51.240;6.794;2023-02-01T11:20:14;20.60;;;4.10;;
5569;SDS011;2808;51.240;6.794;2023-02-01T11:22:46;18.73;;;3.40;;
5569;SDS011;2808;51.240;6.794;2023-02-01T11:25:20;14.67;;;3.63;;
5569;SDS011;2808;51.240;6.794;2023-02-01T11:27:49;23.83;;;4.30;;
5569;SDS011;2808;51.240;6.794;2023-02-01T11:30:22;20.10;;;3.40;;
5569;SDS011;2808;51.240;6.794;2023-02-01T11:32:57;27.33;;;3.90;;
5569;SDS011;2808;51.240;6.794;2023-02-01T11:35:28;24.20;;;3.70;;
5569;SDS011;2808;51.240;6.794;2023-02-01T11:37:57;17.73;;;3.20;;
5569;SDS011;2808;51.240;6.794;2023-02-01T11:40:27;30.90;;;4.57;;
5569;SDS011;2808;51.240;6.794;2023-02-01T11:42:56;20.53;;;3.30;;
5569;SDS011;2808;51.240;6.794;2023-02-01T11:45:26;18.53;;;3.63;;
5569;SDS011;2808;51.240;6.794;2023-02-01T11:47:56;20.30;;;3.77;;
5569;SDS011;2808;51.240;6.794;2023-02-01T11:50:29;30.43;;;3.70;;
5569;SDS011;2808;51.240;6.794;2023-02-01T11:53:22;18.67;;;3.50;;
5569;SDS011;2808;51.240;6.794;2023-02-01T11:56:05;29.17;;;3.40;;
5569;SDS011;2808;51.240;6.794;2023-02-01T11:58:47;19.57;;;3.77;;
5569;SDS011;2808;51.240;6.794;2023-02-01T12:07:16;20.77;;;3.53;;
5569;SDS011;2808;51.240;6.794;2023-02-01T12:09:50;24.70;;;3.90;;
5569;SDS011;2808;51.240;6.794;2023-02-01T12:12:33;12.30;;;3.43;;
5569;SDS011;2808;51.240;6.794;2023-02-01T12:15:11;23.03;;;4.37;;
5569;SDS011;2808;51.240;6.794;2023-02-01T12:18:00;13.47;;;4.07;;
5569;SDS011;2808;51.240;6.794;2023-02-01T12:21:17;21.77;;;3.60;;
5569;SDS011;2808;51.240;6.794;2023-02-01T12:23:59;19.40;;;3.20;;
5569;SDS011;2808;51.240;6.794;2023-02-01T12:29:33;17.67;;;2.87;;
5569;SDS011;2808;51.240;6.794;2023-02-01T12:32:27;19.37;;;3.80;;
5569;SDS011;2808;51.240;6.794;2023-02-01T12:35:12;10.03;;;3.00;;
5569;SDS011;2808;51.240;6.794;2023-02-01T12:38:08;20.80;;;3.90;;
5569;SDS011;2808;51.240;6.794;2023-02-01T12:40:51;18.43;;;3.70;;
5569;SDS011;2808;51.240;6.794;2023-02-01T12:43:36;13.57;;;3.27;;
5569;SDS011;2808;51.240;6.794;2023-02-01T12:46:13;18.60;;;3.90;;
5569;SDS011;2808;51.240;6.794;2023-02-01T12:48:47;17.83;;;3.60;;
5569;SDS011;2808;51.240;6.794;2023-02-01T12:51:23;19.07;;;4.10;;
5569;SDS011;2808;51.240;6.794;2023-02-01T12:53:54;23.53;;;4.20;;
5569;SDS011;2808;51.240;6.794;2023-02-01T12:56:28;22.23;;;3.20;;
5569;SDS011;2808;51.240;6.794;2023-02-01T12:59:01;24.93;;;3.70;;
5569;SDS011;2808;51.240;6.794;2023-02-01T13:01:32;19.67;;;3.20;;
5569;SDS011;2808;51.240;6.794;2023-02-01T13:04:04;17.40;;;3.50;;
5569;SDS011;2808;51.240;6.794;2023-02-01T13:06:43;19.80;;;4.10;;
5569;SDS011;2808;51.240;6.794;2023-02-01T13:09:17;20.00;;;3.50;;
5569;SDS011;2808;51.240;6.794;2023-02-01T13:11:51;26.17;;;3.90;;
5569;SDS011;2808;51.240;6.794;2023-02-01T13:14:23;24.23;;;3.87;;
5569;SDS011;2808;51.240;6.794;2023-02-01T13:16:57;20.20;;;3.50;;
5569;SDS011;2808;51.240;6.794;2023-02-01T13:19:30;12.43;;;3.13;;
5569;SDS011;2808;51.240;6.794;2023-02-01T13:22:09;22.97;;;3.40;;
5569;SDS011;2808;51.240;6.794;2023-02-01T13:24:40;21.20;;;3.80;;
5569;SDS011;2808;51.240;6.794;2023-02-01T13:27:12;24.43;;;3.23;;
5569;SDS011;2808;51.240;6.794;2023-02-01T13:29:45;19.37;;;3.47;;
5569;SDS011;2808;51.240;6.794;2023-02-01T13:32:21;23.97;;;3.37;;
5569;SDS011;2808;51.240;6.794;2023-02-01T13:38:49;13.63;;;3.20;;
5569;SDS011;2808;51.240;6.794;2023-02-01T13:41:40;19.97;;;3.43;;
5569;SDS011;2808;51.240;6.794;2023-02-01T13:44:19;20.80;;;3.50;;
5569;SDS011;2808;51.240;6.794;2023-02-01T13:46:51;17.93;;;2.90;;
5569;SDS011;2808;51.240;6.794;2023-02-01T13:49:25;18.80;;;2.80;;
5569;SDS011;2808;51.240;6.794;2023-02-01T13:51:55;17.47;;;3.23;;
5569;SDS011;2808;51.240;6.794;2023-02-01T13:54:25;21.23;;;3.50;;
5569;SDS011;2808;51.240;6.794;2023-02-01T13:56:56;22.33;;;3.60;;
5569;SDS011;2808;51.240;6.794;2023-02-01T14:08:42;11.10;;;2.27;;
5569;SDS011;2808;51.240;6.794;2023-02-01T14:11:34;13.20;;;2.87;;
5569;SDS011;2808;51.240;6.794;2023-02-01T14:23:19;14.57;;;2.67;;
5569;SDS011;2808;51.240;6.794;2023-02-01T14:25:59;16.33;;;2.60;;
5569;SDS011;2808;51.240;6.794;2023-02-01T14:28:46;11.20;;;2.40;;
5569;SDS011;2808;51.240;6.794;2023-02-01T14:31:33;14.40;;;2.33;;
5569;SDS011;2808;51.240;6.794;2023-02-01T14:34:17;20.30;;;2.57;;
5569;SDS011;2808;51.240;6.794;2023-02-01T14:36:50;14.57;;;2.57;;
5569;SDS011;2808;51.240;6.794;2023-02-01T14:39:22;16.57;;;3.10;;
5569;SDS011;2808;51.240;6.794;2023-02-01T14:41:54;13.23;;;2.60;;
5569;SDS011;2808;51.240;6.794;2023-02-01T14:44:26;25.27;;;3.80;;
5569;SDS011;2808;51.240;6.794;2023-02-01T14:49:55;24.30;;;3.30;;
5569;SDS011;2808;51.240;6.794;2023-02-01T14:52:37;12.10;;;3.10;;
5569;SDS011;2808;51.240;6.794;2023-02-01T14:55:11;14.07;;;2.67;;
5569;SDS011;2808;51.240;6.794;2023-02-01T14:57:44;15.10;;;2.80;;
5569;SDS011;2808;51.240;6.794;2023-02-01T15:00:17;16.53;;;4.00;;
5569;SDS011;2808;51.240;6.794;2023-02-01T15:02:47;21.57;;;2.87;;
5569;SDS011;2808;51.240;6.794;2023-02-01T15:05:22;18.50;;;2.40;;
5569;SDS011;2808;51.240;6.794;2023-02-01T15:08:00;13.93;;;2.80;;
5569;SDS011;2808;51.240;6.794;2023-02-01T15:10:33;21.90;;;3.27;;
5569;SDS011;2808;51.240;6.794;2023-02-01T15:13:17;17.50;;;3.20;;
5569;SDS011;2808;51.240;6.794;2023-02-01T15:15:59;20.00;;;2.90;;
5569;SDS011;2808;51.240;6.794;2023-02-01T15:18:28;14.77;;;3.00;;
5569;SDS011;2808;51.240;6.794;2023-02-01T15:20:56;17.20;;;2.90;;
5569;SDS011;2808;51.240;6.794;2023-02-01T15:23:25;34.40;;;3.43;;
5569;SDS011;2808;51.240;6.794;2023-02-01T15:25:54;16.83;;;3.13;;
5569;SDS011;2808;51.240;6.794;2023-02-01T15:28:21;21.47;;;4.17;;
5569;SDS011;2808;51.240;6.794;2023-02-01T15:30:54;18.80;;;3.07;;
5569;SDS011;2808;51.240;6.794;2023-02-01T15:33:23;17.50;;;3.10;;
5569;SDS011;2808;51.240;6.794;2023-02-01T15:35:52;22.63;;;4.73;;
5569;SDS011;2808;51.240;6.794;2023-02-01T15:38:25;25.30;;;3.07;;
5569;SDS011;2808;51.240;6.794;2023-02-01T15:41:03;20.07;;;3.20;;
5569;SDS011;2808;51.240;6.794;2023-02-01T15:43:34;24.60;;;3.50;;
5569;SDS011;2808;51.240;6.794;2023-02-01T15:46:06;28.47;;;3.20;;
5569;SDS011;2808;51.240;6.794;2023-02-01T15:48:37;20.23;;;3.90;;
5569;SDS011;2808;51.240;6.794;2023-02-01T15:51:13;15.20;;;3.00;;
5569;SDS011;2808;51.240;6.794;2023-02-01T15:53:47;12.80;;;3.00;;
5569;SDS011;2808;51.240;6.794;2023-02-01T15:56:22;16.87;;;2.70;;
5569;SDS011;2808;51.240;6.794;2023-02-01T15:58:52;21.13;;;3.50;;
5569;SDS011;2808;51.240;6.794;2023-02-01T16:01:22;17.77;;;2.53;;
5569;SDS011;2808;51.240;6.794;2023-02-01T16:06:29;21.60;;;3.37;;
5569;SDS011;2808;51.240;6.794;2023-02-01T16:09:05;19.67;;;3.00;;
5569;SDS011;2808;51.240;6.794;2023-02-01T16:11:47;17.00;;;3.40;;
5569;SDS011;2808;51.240;6.794;2023-02-01T16:14:18;15.93;;;3.50;;